Time;durP1;ratioP1;P1;durP2;ratioP2;P2;SDS_P1;SDS_P2;PMS_P1;PMS_P2;Temp;Humidity;BMP_temperature;BMP_pressure;BME280_temperature;BME280_humidity;BME280_pressure;Samples;Min_cycle;Max_cycle;Signal;HPM_P1;HPM_P2
2023/02/05 00:00:54;;;;;;;10.27;6.63;;;3.50;99.90;;;;;;5064633;28;20225;-49
2023/02/05 00:03:21;;;;;;;8.07;6.30;;;3.50;99.90;;;;;;5062102;28;20315;-49
2023/02/05 00:05:48;;;;;;;10.73;7.40;;;3.50;99.90;;;;;;5059498;28;20795;-49
2023/02/05 00:08:15;;;;;;;7.87;6.40;;;3.50;99.90;;;;;;5067980;28;20265;-50
2023/02/05 00:10:42;;;;;;;7.37;6.67;;;3.50;99.90;;;;;;5063504;28;20223;-50
2023/02/05 00:13:09;;;;;;;8.67;5.67;;;3.40;99.90;;;;;;5055687;28;20207;-49
2023/02/05 00:15:40;;;;;;;9.20;5.90;;;3.50;99.90;;;;;;5061455;28;20276;-49
2023/02/05 00:18:07;;;;;;;6.63;5.50;;;3.40;99.90;;;;;;5059354;28;20269;-49
2023/02/05 00:20:35;;;;;;;6.13;5.53;;;3.40;99.90;;;;;;5069441;28;20579;-50
2023/02/05 00:23:02;;;;;;;8.60;6.47;;;3.40;99.90;;;;;;5072884;28;20213;-49
2023/02/05 00:25:29;;;;;;;7.57;5.70;;;3.40;99.90;;;;;;5073120;28;20229;-49
2023/02/05 00:27:56;;;;;;;10.37;5.33;;;3.40;99.90;;;;;;5051502;28;20253;-50
2023/02/05 00:30:23;;;;;;;7.30;5.40;;;3.40;99.90;;;;;;5044377;28;20267;-49
2023/02/05 00:32:51;;;;;;;12.13;6.50;;;3.40;99.90;;;;;;5061343;28;20205;-49
2023/02/05 00:35:18;;;;;;;11.20;6.07;;;3.30;99.90;;;;;;5053088;28;20260;-49
2023/02/05 00:37:45;;;;;;;7.17;6.00;;;3.30;99.90;;;;;;5053028;28;20220;-49
2023/02/05 00:40:12;;;;;;;7.83;7.13;;;3.30;99.90;;;;;;5041221;28;20199;-49
2023/02/05 00:42:39;;;;;;;9.70;6.70;;;3.30;99.90;;;;;;5040467;28;20684;-49
2023/02/05 00:45:07;;;;;;;6.77;5.70;;;3.30;99.90;;;;;;5048159;28;20199;-49
2023/02/05 00:47:34;;;;;;;8.03;6.30;;;3.30;99.90;;;;;;5056625;28;20274;-49
2023/02/05 00:50:03;;;;;;;10.03;6.33;;;3.40;99.90;;;;;;5063045;28;20199;-49
2023/02/05 00:52:30;;;;;;;7.50;6.33;;;3.30;99.90;;;;;;5064416;28;20672;-49
2023/02/05 00:54:57;;;;;;;8.97;5.93;;;3.30;99.90;;;;;;5046283;28;20254;-50
2023/02/05 00:57:25;;;;;;;6.50;5.80;;;3.30;99.90;;;;;;5047666;28;20235;-49
2023/02/05 00:59:52;;;;;;;6.67;5.87;;;3.30;99.90;;;;;;5064296;28;20198;-48
2023/02/05 01:02:23;;;;;;;6.70;6.07;;;3.30;99.90;;;;;;5053103;28;20264;-49
2023/02/05 01:04:50;;;;;;;5.87;5.03;;;3.30;99.90;;;;;;5062999;28;20200;-48
2023/02/05 01:07:19;;;;;;;7.60;6.13;;;3.30;99.90;;;;;;5050147;28;20224;-49
2023/02/05 01:09:46;;;;;;;5.80;5.23;;;3.30;99.90;;;;;;5048955;28;20224;-49
2023/02/05 01:12:14;;;;;;;7.10;4.93;;;3.30;99.90;;;;;;5042325;28;20258;-49
2023/02/05 01:14:41;;;;;;;6.67;5.97;;;3.30;99.90;;;;;;5050999;28;20203;-49
2023/02/05 01:17:08;;;;;;;6.77;5.97;;;3.30;99.90;;;;;;5052386;28;20277;-48
2023/02/05 01:19:36;;;;;;;7.53;5.70;;;3.10;99.90;;;;;;5052174;28;20200;-49
2023/02/05 01:22:03;;;;;;;7.50;5.13;;;3.10;99.90;;;;;;5049221;28;20196;-49
2023/02/05 01:24:32;;;;;;;6.10;5.30;;;3.10;99.90;;;;;;5057182;28;20211;-48
2023/02/05 01:26:59;;;;;;;8.27;5.00;;;3.10;99.90;;;;;;5046270;28;20647;-48
2023/02/05 01:29:27;;;;;;;5.97;4.37;;;3.00;99.90;;;;;;5033714;28;20675;-48
2023/02/05 01:31:54;;;;;;;6.47;5.60;;;3.00;99.90;;;;;;5049790;28;20276;-49
2023/02/05 01:34:21;;;;;;;6.20;5.30;;;3.20;99.90;;;;;;5051929;28;20206;-49
2023/02/05 01:36:48;;;;;;;8.00;5.20;;;3.10;99.90;;;;;;5061746;28;20266;-49
2023/02/05 01:39:15;;;;;;;6.23;5.67;;;3.20;99.90;;;;;;5052602;28;20203;-49
2023/02/05 01:41:44;;;;;;;5.97;5.47;;;3.20;99.90;;;;;;5051779;28;20195;-49
2023/02/05 01:44:13;;;;;;;8.47;5.70;;;3.10;99.90;;;;;;5047732;28;20673;-49
2023/02/05 01:46:42;;;;;;;7.00;5.43;;;3.00;99.90;;;;;;5051943;28;20220;-49
2023/02/05 01:49:15;;;;;;;11.20;6.50;;;3.00;99.90;;;;;;5052479;28;20196;-49
2023/02/05 01:51:45;;;;;;;6.53;4.90;;;3.00;99.90;;;;;;5059830;28;20355;-48
2023/02/05 01:54:12;;;;;;;7.63;5.07;;;2.90;99.90;;;;;;5058026;28;20251;-49
2023/02/05 01:56:42;;;;;;;9.97;6.43;;;2.80;99.90;;;;;;5057903;28;20276;-49
2023/02/05 01:59:16;;;;;;;7.27;5.20;;;2.80;99.90;;;;;;5055636;28;20199;-49
2023/02/05 02:01:44;;;;;;;7.27;5.37;;;2.70;99.90;;;;;;5053481;28;20195;-49
2023/02/05 02:04:13;;;;;;;8.17;6.07;;;2.60;99.90;;;;;;5052110;28;20204;-48
2023/02/05 02:06:40;;;;;;;6.80;4.73;;;2.70;99.90;;;;;;5051944;28;20223;-49
2023/02/05 02:09:08;;;;;;;6.20;5.37;;;2.60;99.90;;;;;;5049180;28;20194;-49
2023/02/05 02:11:39;;;;;;;8.97;6.13;;;2.50;99.90;;;;;;5063112;28;20272;-49
2023/02/05 02:14:09;;;;;;;10.67;6.67;;;2.50;99.90;;;;;;5062300;28;20197;-49
2023/02/05 02:16:39;;;;;;;7.80;6.03;;;2.60;99.90;;;;;;5060454;28;20651;-49
2023/02/05 02:19:12;;;;;;;8.10;5.43;;;2.60;99.90;;;;;;5071640;28;20207;-49
2023/02/05 02:21:59;;;;;;;11.90;6.73;;;2.50;99.90;;;;;;5051734;28;20246;-49
2023/02/05 02:24:38;;;;;;;9.07;6.67;;;2.40;99.90;;;;;;5054960;28;20261;-49
2023/02/05 02:27:21;;;;;;;10.50;7.00;;;2.30;99.90;;;;;;5057345;28;20218;-48
2023/02/05 02:29:54;;;;;;;7.20;6.00;;;2.20;99.90;;;;;;5062409;28;20256;-49
2023/02/05 02:32:31;;;;;;;9.60;6.83;;;2.10;99.90;;;;;;5058721;28;20260;-49
2023/02/05 02:35:06;;;;;;;7.87;6.07;;;2.10;99.90;;;;;;5047114;28;20208;-49
2023/02/05 02:37:37;;;;;;;9.27;6.23;;;2.10;99.90;;;;;;5059973;28;20259;-49
2023/02/05 02:40:11;;;;;;;10.60;7.00;;;2.00;99.90;;;;;;5071469;28;20243;-49
2023/02/05 02:42:45;;;;;;;8.53;7.63;;;1.90;99.90;;;;;;5069428;28;20258;-48
2023/02/05 02:45:15;;;;;;;6.83;6.13;;;1.90;99.90;;;;;;5052257;28;20206;-49
2023/02/05 02:47:47;;;;;;;9.20;6.40;;;1.90;99.90;;;;;;5054242;28;20256;-49
2023/02/05 02:50:20;;;;;;;8.20;6.20;;;1.90;99.90;;;;;;5069446;28;20402;-49
2023/02/05 02:52:48;;;;;;;9.40;6.77;;;1.80;99.90;;;;;;5068552;28;20222;-49
2023/02/05 02:55:19;;;;;;;10.37;6.77;;;1.80;99.90;;;;;;5056078;28;20203;-49
2023/02/05 02:57:48;;;;;;;9.57;6.77;;;1.70;99.90;;;;;;5055743;28;20202;-49
2023/02/05 03:00:22;;;;;;;10.43;6.83;;;1.70;99.90;;;;;;5069561;28;20206;-49
2023/02/05 03:02:52;;;;;;;9.17;6.70;;;1.70;99.90;;;;;;5065413;28;20198;-49
2023/02/05 03:05:23;;;;;;;7.80;6.00;;;1.70;99.90;;;;;;5062016;28;20253;-49
2023/02/05 03:07:54;;;;;;;7.33;6.43;;;1.60;99.90;;;;;;5057194;28;20199;-49
2023/02/05 03:10:26;;;;;;;8.30;6.40;;;1.60;99.90;;;;;;5061433;28;20194;-49
2023/02/05 03:12:55;;;;;;;8.43;5.97;;;1.60;99.90;;;;;;5074641;28;20223;-49
2023/02/05 03:15:24;;;;;;;11.07;6.10;;;1.60;99.90;;;;;;5072858;28;20296;-49
2023/02/05 03:17:53;;;;;;;9.13;6.57;;;1.50;99.90;;;;;;5061981;28;20195;-49
2023/02/05 03:20:25;;;;;;;10.27;6.60;;;1.50;99.90;;;;;;5050783;28;20198;-49
2023/02/05 03:22:52;;;;;;;9.63;7.33;;;1.50;99.90;;;;;;5054657;28;20397;-49
2023/02/05 03:25:21;;;;;;;7.13;6.43;;;1.50;99.90;;;;;;5054566;28;20203;-49
2023/02/05 03:27:49;;;;;;;8.63;6.90;;;1.40;99.90;;;;;;5054582;28;20750;-49
2023/02/05 03:30:16;;;;;;;7.93;6.20;;;1.50;99.90;;;;;;5054355;28;20203;-49
2023/02/05 03:32:56;;;;;;;8.53;7.60;;;1.40;99.90;;;;;;5055451;28;20219;-49
2023/02/05 03:35:32;;;;;;;9.90;8.97;;;1.50;99.90;;;;;;5061324;28;20221;-49
2023/02/05 03:38:26;;;;;;;11.20;10.10;;;1.50;99.90;;;;;;5062597;28;20681;-49
2023/02/05 03:40:58;;;;;;;12.73;10.03;;;1.50;99.90;;;;;;5065792;28;20198;-49
2023/02/05 03:43:36;;;;;;;12.03;10.13;;;1.40;99.90;;;;;;5064274;28;20203;-49
2023/02/05 03:46:12;;;;;;;15.13;10.97;;;1.40;99.90;;;;;;5054407;28;20222;-49
2023/02/05 03:48:54;;;;;;;13.87;9.50;;;1.40;99.90;;;;;;5063477;28;20202;-49
2023/02/05 03:51:32;;;;;;;11.47;8.10;;;1.30;99.90;;;;;;5056537;28;20265;-49
2023/02/05 03:54:09;;;;;;;12.80;8.67;;;1.30;99.90;;;;;;5033373;28;20266;-49
2023/02/05 03:56:44;;;;;;;10.93;7.87;;;1.30;99.90;;;;;;5036964;28;20235;-49
2023/02/05 03:59:15;;;;;;;10.63;7.87;;;1.30;99.90;;;;;;5060327;28;20202;-52
2023/02/05 04:01:43;;;;;;;10.90;8.63;;;1.40;99.90;;;;;;5053470;28;20290;-49
2023/02/05 04:04:12;;;;;;;10.93;8.70;;;1.30;99.90;;;;;;5057353;28;20653;-49
2023/02/05 04:06:39;;;;;;;10.97;7.93;;;1.30;99.90;;;;;;5065392;28;20216;-49
2023/02/05 04:09:06;;;;;;;12.57;7.77;;;1.30;99.90;;;;;;5060484;28;20202;-49
2023/02/05 04:11:33;;;;;;;10.67;7.83;;;1.20;99.90;;;;;;5065102;28;20226;-49
2023/02/05 04:14:00;;;;;;;8.13;7.17;;;1.20;99.90;;;;;;5073611;28;20629;-49
2023/02/05 04:16:27;;;;;;;8.40;7.40;;;1.20;99.90;;;;;;5073349;28;20249;-53
2023/02/05 04:18:54;;;;;;;9.40;6.10;;;1.20;99.90;;;;;;5064978;28;20669;-49
2023/02/05 04:21:22;;;;;;;8.47;7.40;;;1.20;99.90;;;;;;5057629;28;20245;-49
2023/02/05 04:23:49;;;;;;;9.80;7.07;;;1.20;99.90;;;;;;5061707;28;20194;-49
2023/02/05 04:26:16;;;;;;;10.23;6.97;;;1.10;99.90;;;;;;5053443;28;20658;-48
2023/02/05 04:28:43;;;;;;;9.60;7.53;;;1.10;99.90;;;;;;5053324;28;20207;-49
2023/02/05 04:31:12;;;;;;;10.27;6.70;;;1.10;99.90;;;;;;5052815;28;20202;-48
2023/02/05 04:33:39;;;;;;;8.83;6.57;;;1.10;99.90;;;;;;5051365;28;20204;-49
2023/02/05 04:36:07;;;;;;;10.03;6.97;;;1.10;99.90;;;;;;5046494;28;20252;-49
2023/02/05 04:38:35;;;;;;;12.17;7.60;;;1.10;99.90;;;;;;5070182;28;20194;-49
2023/02/05 04:41:02;;;;;;;13.40;7.90;;;1.20;99.90;;;;;;5073096;28;20252;-49
2023/02/05 04:43:29;;;;;;;8.93;8.03;;;1.10;99.90;;;;;;5059181;28;20203;-49
2023/02/05 04:45:56;;;;;;;8.20;7.07;;;1.10;99.90;;;;;;5053964;28;20223;-49
2023/02/05 04:48:23;;;;;;;8.83;7.43;;;1.20;99.90;;;;;;5059971;28;20258;-49
2023/02/05 04:50:50;;;;;;;12.23;7.63;;;1.10;99.90;;;;;;5066723;28;20611;-49
2023/02/05 04:53:17;;;;;;;11.73;8.37;;;1.10;99.90;;;;;;5055461;28;20215;-49
2023/02/05 04:55:45;;;;;;;12.03;7.70;;;1.30;99.90;;;;;;5095363;22;20284;-52
2023/02/05 04:58:12;;;;;;;13.33;8.23;;;1.20;99.90;;;;;;5029499;28;20292;-51
2023/02/05 05:00:39;;;;;;;10.77;8.00;;;1.10;99.90;;;;;;5044366;28;20207;-51
2023/02/05 05:03:06;;;;;;;9.80;7.50;;;1.00;99.90;;;;;;5034503;28;20592;-53
2023/02/05 05:05:34;;;;;;;11.03;7.83;;;0.90;99.90;;;;;;5030597;28;20205;-51
2023/02/05 05:08:01;;;;;;;9.20;7.17;;;0.90;99.90;;;;;;5014173;28;20219;-51
2023/02/05 05:10:28;;;;;;;9.13;6.57;;;0.80;99.90;;;;;;5022831;28;20199;-52
2023/02/05 05:12:57;;;;;;;8.60;7.40;;;0.80;99.90;;;;;;5022480;28;20221;-50
2023/02/05 05:15:24;;;;;;;8.67;7.87;;;0.80;99.90;;;;;;5013275;28;20250;-51
2023/02/05 05:17:50;;;;;;;11.10;9.93;;;0.80;99.90;;;;;;5031299;28;20223;-51
2023/02/05 05:20:18;;;;;;;7.57;6.87;;;0.80;99.90;;;;;;5012605;28;20751;-51
2023/02/05 05:22:45;;;;;;;8.30;7.50;;;0.80;99.90;;;;;;5018705;28;20249;-52
2023/02/05 05:25:12;;;;;;;14.20;10.47;;;0.80;99.90;;;;;;5025247;28;20508;-51
2023/02/05 05:27:38;;;;;;;12.30;10.00;;;0.90;99.90;;;;;;5031002;28;20223;-52
2023/02/05 05:30:08;;;;;;;10.20;8.53;;;0.80;99.90;;;;;;5031275;28;20258;-51
2023/02/05 05:32:35;;;;;;;10.00;7.70;;;0.70;99.90;;;;;;5030662;28;20271;-52
2023/02/05 05:35:02;;;;;;;9.53;7.87;;;0.70;99.90;;;;;;5030509;28;20254;-51
2023/02/05 05:37:29;;;;;;;7.57;6.87;;;0.60;99.90;;;;;;5011156;28;20281;-52
2023/02/05 05:45:26;;;;;;;9.27;7.87;;;0.50;99.90;;;;;;5015142;28;20232;-52
2023/02/05 05:47:54;;;;;;;11.00;7.53;;;0.40;99.90;;;;;;5010844;28;20287;-52
2023/02/05 05:50:21;;;;;;;10.10;7.97;;;0.40;99.90;;;;;;5010803;28;20619;-52
2023/02/05 05:52:48;;;;;;;10.47;7.73;;;0.40;99.90;;;;;;5009457;28;20228;-51
2023/02/05 05:55:15;;;;;;;11.13;7.53;;;0.30;99.90;;;;;;5012933;28;20244;-51
2023/02/05 05:57:42;;;;;;;8.77;7.67;;;0.40;99.90;;;;;;5020381;28;20291;-51
2023/02/05 06:00:11;;;;;;;10.53;8.03;;;0.30;99.90;;;;;;5030661;28;20199;-52
2023/02/05 06:02:43;;;;;;;12.00;6.90;;;0.30;99.90;;;;;;5030124;28;20203;-51
2023/02/05 06:05:10;;;;;;;10.13;8.03;;;0.30;99.90;;;;;;5002071;28;20228;-51
2023/02/05 06:07:37;;;;;;;12.50;7.70;;;0.30;99.90;;;;;;5012974;28;20222;-51
2023/02/05 06:10:04;;;;;;;9.80;7.83;;;0.30;99.90;;;;;;5016420;28;20289;-53
2023/02/05 06:12:32;;;;;;;9.80;7.40;;;0.30;99.90;;;;;;5014130;28;20226;-52
2023/02/05 06:14:59;;;;;;;13.37;7.97;;;0.30;99.90;;;;;;5012933;28;20191;-53
2023/02/05 06:17:29;;;;;;;10.50;7.13;;;0.30;99.90;;;;;;5015388;28;20584;-51
2023/02/05 06:19:58;;;;;;;14.23;7.87;;;0.40;99.90;;;;;;5019240;28;20205;-50
2023/02/05 06:22:28;;;;;;;9.00;6.57;;;0.40;99.90;;;;;;5025679;28;20198;-52
2023/02/05 06:24:55;;;;;;;10.80;8.07;;;0.40;99.90;;;;;;5026049;28;20204;-50
2023/02/05 06:27:22;;;;;;;8.67;6.17;;;0.50;99.90;;;;;;5023818;28;20300;-52
2023/02/05 06:29:49;;;;;;;9.43;5.90;;;0.50;99.90;;;;;;5017718;28;20208;-51
2023/02/05 06:32:16;;;;;;;12.03;6.50;;;0.60;99.90;;;;;;5022338;28;20213;-52
2023/02/05 06:34:43;;;;;;;16.10;6.90;;;0.60;99.90;;;;;;5032337;28;20283;-52
2023/02/05 06:37:11;;;;;;;11.53;6.73;;;0.60;99.90;;;;;;5021313;28;20274;-52
2023/02/05 06:39:38;;;;;;;11.17;6.90;;;0.60;99.90;;;;;;5014216;28;20214;-52
2023/02/05 06:42:05;;;;;;;11.00;7.57;;;0.70;99.90;;;;;;5010099;28;20202;-52
2023/02/05 06:44:33;;;;;;;13.47;7.53;;;0.70;99.90;;;;;;5013952;28;20205;-51
2023/02/05 06:47:00;;;;;;;11.67;7.33;;;0.70;99.90;;;;;;5022337;28;20215;-51
2023/02/05 06:49:27;;;;;;;14.70;8.17;;;0.80;99.90;;;;;;5013990;28;20257;-52
2023/02/05 06:51:54;;;;;;;9.80;6.53;;;0.80;99.90;;;;;;5010761;28;20544;-51
2023/02/05 06:54:23;;;;;;;11.37;7.43;;;0.80;99.90;;;;;;5005237;28;20200;-51
2023/02/05 06:56:50;;;;;;;9.13;6.97;;;0.80;99.90;;;;;;5007003;28;20280;-52
2023/02/05 06:59:17;;;;;;;9.17;6.67;;;0.80;99.90;;;;;;5014099;28;20574;-52
2023/02/05 07:01:44;;;;;;;10.47;6.87;;;0.90;99.90;;;;;;5019794;28;20204;-52
2023/02/05 07:04:12;;;;;;;11.73;7.93;;;0.90;99.90;;;;;;5029163;28;20667;-51
2023/02/05 07:06:39;;;;;;;15.00;10.10;;;0.90;99.90;;;;;;5013664;28;20228;-52
2023/02/05 07:09:06;;;;;;;13.90;10.33;;;0.90;99.90;;;;;;5027897;28;20211;-51
2023/02/05 07:11:35;;;;;;;12.77;9.43;;;0.90;99.90;;;;;;5033132;28;20213;-50
2023/02/05 07:14:03;;;;;;;10.70;8.80;;;1.00;99.90;;;;;;5016538;28;20735;-53
2023/02/05 07:16:30;;;;;;;13.57;8.67;;;1.10;99.90;;;;;;5013478;28;20311;-51
2023/02/05 07:18:58;;;;;;;13.33;9.67;;;1.10;99.90;;;;;;5013432;28;20219;-52
2023/02/05 07:21:25;;;;;;;12.43;9.47;;;1.20;99.90;;;;;;5010189;28;20200;-51
2023/02/05 07:23:52;;;;;;;21.53;15.37;;;1.20;99.90;;;;;;5015606;28;20206;-51
2023/02/05 07:26:19;;;;;;;26.83;19.03;;;1.20;99.90;;;;;;5021949;28;20228;-51
2023/02/05 07:28:47;;;;;;;38.37;23.07;;;1.20;99.90;;;;;;5022825;28;20264;-51
2023/02/05 07:31:17;;;;;;;39.47;22.27;;;1.30;99.90;;;;;;5012721;28;20710;-53
2023/02/05 07:33:45;;;;;;;38.27;21.60;;;1.30;99.90;;;;;;5019010;28;20303;-52
2023/02/05 07:36:15;;;;;;;36.47;20.17;;;1.40;99.90;;;;;;5016694;28;20269;-50
2023/02/05 07:38:42;;;;;;;42.90;24.40;;;1.40;99.90;;;;;;5013199;28;20243;-51
2023/02/05 07:41:10;;;;;;;26.83;16.37;;;1.50;99.90;;;;;;5026184;28;20668;-53
2023/02/05 07:43:38;;;;;;;20.57;14.47;;;1.60;99.90;;;;;;5017188;28;20200;-52
2023/02/05 07:46:09;;;;;;;42.30;24.33;;;1.60;99.90;;;;;;5015491;28;20608;-53
2023/02/05 07:48:36;;;;;;;22.73;15.50;;;1.60;99.90;;;;;;5026054;28;20205;-52
2023/02/05 07:51:04;;;;;;;19.63;12.40;;;1.70;99.90;;;;;;5015923;28;20266;-52
2023/02/05 07:53:32;;;;;;;16.00;10.93;;;1.80;99.90;;;;;;5024239;28;20323;-51
2023/02/05 07:56:03;;;;;;;14.17;10.17;;;1.80;99.90;;;;;;5010382;28;20221;-52
2023/02/05 07:58:30;;;;;;;15.90;11.67;;;1.80;99.90;;;;;;5012568;28;20586;-52
2023/02/05 08:01:00;;;;;;;19.07;12.73;;;1.90;99.90;;;;;;5022534;28;20568;-52
2023/02/05 08:03:29;;;;;;;17.03;12.10;;;1.90;99.90;;;;;;5020556;28;20251;-51
2023/02/05 08:05:56;;;;;;;18.33;12.10;;;1.90;99.90;;;;;;5011661;28;20207;-51
2023/02/05 08:08:23;;;;;;;18.03;11.53;;;2.00;99.90;;;;;;5010702;28;20258;-50
2023/02/05 08:10:56;;;;;;;17.13;11.77;;;2.10;99.90;;;;;;5010048;28;20372;-51
2023/02/05 08:13:23;;;;;;;19.70;13.93;;;2.20;99.90;;;;;;5017645;28;20223;-52
2023/02/05 08:15:50;;;;;;;19.80;14.43;;;2.30;99.90;;;;;;5014875;28;20200;-52
2023/02/05 08:18:17;;;;;;;17.97;13.27;;;2.30;99.90;;;;;;5032522;28;20274;-52
2023/02/05 08:20:45;;;;;;;16.03;11.40;;;2.40;99.90;;;;;;5018868;28;20290;-52
2023/02/05 08:23:12;;;;;;;19.70;11.43;;;2.40;99.90;;;;;;5015668;28;20196;-52
2023/02/05 08:25:39;;;;;;;22.10;14.47;;;2.40;99.90;;;;;;5013960;28;20203;-51
2023/02/05 08:28:06;;;;;;;18.93;13.60;;;2.60;99.90;;;;;;5012292;28;20204;-52
2023/02/05 08:30:33;;;;;;;21.60;14.37;;;2.60;99.90;;;;;;5011504;28;20208;-51
2023/02/05 08:33:00;;;;;;;23.43;15.20;;;2.60;99.90;;;;;;5016411;28;20698;-52
2023/02/05 08:35:27;;;;;;;23.70;14.40;;;2.80;99.90;;;;;;5011013;28;20201;-52
2023/02/05 08:37:57;;;;;;;24.70;16.97;;;2.90;99.90;;;;;;5011653;28;20775;-51
2023/02/05 08:40:24;;;;;;;24.43;16.20;;;2.90;99.90;;;;;;5011721;28;20209;-51
2023/02/05 08:42:55;;;;;;;19.43;14.13;;;3.00;99.90;;;;;;5012126;28;20212;-52
2023/02/05 08:45:23;;;;;;;18.53;13.33;;;3.10;99.90;;;;;;5011750;28;20209;-52
2023/02/05 08:47:50;;;;;;;16.10;12.97;;;3.10;99.90;;;;;;5013021;28;20279;-51
2023/02/05 08:50:17;;;;;;;19.43;14.30;;;3.10;99.90;;;;;;5023023;28;20198;-52
2023/02/05 08:52:44;;;;;;;16.30;13.30;;;3.10;99.90;;;;;;5030979;28;20208;-52
2023/02/05 08:55:13;;;;;;;14.63;12.73;;;3.20;99.90;;;;;;5021075;28;20282;-52
2023/02/05 08:57:40;;;;;;;17.17;12.80;;;3.20;99.90;;;;;;5011465;28;20311;-51
2023/02/05 09:00:08;;;;;;;19.67;13.10;;;3.30;99.90;;;;;;5020008;28;20307;-52
2023/02/05 09:02:35;;;;;;;18.50;13.03;;;3.30;99.90;;;;;;5030887;28;20742;-52
2023/02/05 09:05:02;;;;;;;15.80;11.43;;;3.30;99.90;;;;;;5021905;28;20776;-52
2023/02/05 09:07:30;;;;;;;15.27;13.47;;;3.30;99.90;;;;;;5019062;28;20271;-52
2023/02/05 09:09:57;;;;;;;20.03;13.97;;;3.30;99.90;;;;;;5012004;28;20269;-52
2023/02/05 09:12:29;;;;;;;18.00;13.13;;;3.40;99.90;;;;;;5017154;28;20656;-53
2023/02/05 09:14:56;;;;;;;18.77;13.80;;;3.40;99.90;;;;;;5003093;28;20277;-51
2023/02/05 09:17:23;;;;;;;24.87;14.73;;;3.40;99.90;;;;;;5012278;28;20278;-52
2023/02/05 09:19:50;;;;;;;18.00;12.17;;;3.50;99.90;;;;;;5021980;28;20282;-52
2023/02/05 09:22:17;;;;;;;16.13;12.43;;;3.60;99.90;;;;;;5007816;28;20200;-52
2023/02/05 09:24:44;;;;;;;15.47;12.33;;;3.60;99.90;;;;;;5015484;28;20204;-51
2023/02/05 09:27:13;;;;;;;15.60;12.33;;;3.50;99.90;;;;;;5011735;28;20274;-52
2023/02/05 09:29:41;;;;;;;17.40;12.43;;;3.60;99.90;;;;;;5010667;28;20679;-52
2023/02/05 09:32:08;;;;;;;21.70;13.30;;;3.70;99.90;;;;;;5010601;28;20216;-52
2023/02/05 09:34:35;;;;;;;19.67;13.67;;;3.60;99.90;;;;;;5006058;28;20270;-51
2023/02/05 09:37:02;;;;;;;18.70;13.07;;;3.80;99.90;;;;;;5002816;28;20216;-52
2023/02/05 09:39:30;;;;;;;25.00;16.40;;;3.90;99.90;;;;;;5006089;28;20208;-52
2023/02/05 09:42:05;;;;;;;22.47;15.47;;;3.90;99.90;;;;;;5022037;28;20677;-52
2023/02/05 09:44:57;;;;;;;21.30;14.63;;;4.20;99.90;;;;;;5024367;28;20200;-51
2023/02/05 09:47:31;;;;;;;26.00;16.97;;;4.50;99.90;;;;;;5010257;28;20229;-52
2023/02/05 09:50:05;;;;;;;21.03;16.47;;;4.90;99.90;;;;;;5018022;28;20287;-52
2023/02/05 09:52:36;;;;;;;21.93;15.83;;;5.00;99.90;;;;;;5014566;28;20208;-52
2023/02/05 09:55:07;;;;;;;21.90;15.87;;;5.20;99.90;;;;;;5018497;28;20271;-52
2023/02/05 09:57:35;;;;;;;27.17;16.97;;;5.20;99.90;;;;;;5004729;28;20660;-53
2023/02/05 10:00:12;;;;;;;24.03;15.60;;;5.10;99.90;;;;;;5011895;28;20204;-52
2023/02/05 10:02:48;;;;;;;19.47;14.23;;;5.10;99.90;;;;;;5019892;28;20202;-51
2023/02/05 10:05:17;;;;;;;20.23;13.87;;;5.20;99.90;;;;;;5016585;28;20621;-52
2023/02/05 10:07:52;;;;;;;22.50;14.70;;;5.20;99.90;;;;;;5003005;28;20266;-51
2023/02/05 10:10:27;;;;;;;17.03;13.57;;;5.10;99.90;;;;;;5007548;28;20757;-53
2023/02/05 10:13:16;;;;;;;16.63;12.37;;;5.10;99.90;;;;;;5012179;28;20207;-53
2023/02/05 10:16:01;;;;;;;16.00;11.20;;;5.10;99.90;;;;;;5012264;28;20264;-51
2023/02/05 10:18:39;;;;;;;16.53;10.93;;;5.00;99.90;;;;;;5017506;28;20195;-52
2023/02/05 10:21:18;;;;;;;11.63;9.60;;;5.10;99.90;;;;;;5018442;28;20205;-52
2023/02/05 10:24:07;;;;;;;12.70;10.17;;;5.10;99.90;;;;;;5021704;28;20205;-52
2023/02/05 10:26:42;;;;;;;12.13;10.57;;;5.30;99.90;;;;;;5014928;28;20284;-53
2023/02/05 10:29:22;;;;;;;10.50;9.40;;;5.30;99.90;;;;;;5030413;28;20266;-51
2023/02/05 10:32:00;;;;;;;17.70;9.20;;;5.40;99.90;;;;;;5024782;28;20220;-52
2023/02/05 10:34:46;;;;;;;12.80;9.17;;;5.50;99.90;;;;;;5010535;28;20279;-51
2023/02/05 10:37:17;;;;;;;11.87;9.73;;;5.50;99.90;;;;;;5009791;28;20225;-52
2023/02/05 10:39:45;;;;;;;11.73;8.90;;;5.50;99.90;;;;;;5006287;28;20271;-52
2023/02/05 10:42:30;;;;;;;12.30;8.60;;;5.60;99.90;;;;;;5008988;28;20265;-52
2023/02/05 10:45:04;;;;;;;9.23;7.90;;;5.60;99.90;;;;;;4995290;28;20246;-52
2023/02/05 10:47:48;;;;;;;13.37;8.87;;;5.70;99.90;;;;;;5003850;28;20229;-54
2023/02/05 10:50:21;;;;;;;10.17;7.50;;;5.60;99.90;;;;;;5009979;28;20265;-51
2023/02/05 10:52:48;;;;;;;11.57;6.93;;;5.60;99.90;;;;;;5004826;28;20253;-52
2023/02/05 10:55:16;;;;;;;11.40;7.60;;;5.60;99.90;;;;;;5008577;28;20224;-52
2023/02/05 10:57:43;;;;;;;11.87;7.43;;;5.60;99.90;;;;;;5002237;28;20299;-52
2023/02/05 11:00:16;;;;;;;8.27;7.17;;;5.40;99.90;;;;;;5007601;28;20205;-52
2023/02/05 11:02:48;;;;;;;8.73;6.40;;;5.30;99.90;;;;;;5002225;28;20213;-51
2023/02/05 11:05:22;;;;;;;12.40;6.97;;;5.30;99.90;;;;;;5023296;28;20736;-52
2023/02/05 11:07:50;;;;;;;6.63;5.27;;;5.30;99.90;;;;;;5018988;28;20601;-52
2023/02/05 11:10:20;;;;;;;7.43;5.13;;;5.40;99.90;;;;;;5018386;28;20247;-51
2023/02/05 11:12:49;;;;;;;5.47;4.90;;;5.40;99.90;;;;;;5010181;28;20458;-51
2023/02/05 11:15:24;;;;;;;8.17;6.23;;;5.40;99.90;;;;;;5011192;28;20220;-51
2023/02/05 11:17:54;;;;;;;7.03;4.17;;;5.40;99.90;;;;;;5015240;28;20297;-53
2023/02/05 11:20:27;;;;;;;5.17;4.60;;;5.40;99.90;;;;;;5025011;28;20197;-52
2023/02/05 11:23:06;;;;;;;5.20;4.67;;;5.30;99.90;;;;;;5027503;28;20740;-51
2023/02/05 11:25:33;;;;;;;4.23;3.93;;;5.30;99.90;;;;;;5013266;28;20206;-50
2023/02/05 11:28:03;;;;;;;4.63;4.23;;;5.20;99.90;;;;;;5011114;28;20685;-51
2023/02/05 11:30:34;;;;;;;4.20;3.73;;;5.30;99.90;;;;;;5010784;28;20291;-51
2023/02/05 11:33:19;;;;;;;3.87;3.43;;;5.30;99.90;;;;;;5008217;28;20205;-51
2023/02/05 11:35:52;;;;;;;3.10;2.80;;;5.30;99.90;;;;;;5016412;28;20205;-51
2023/02/05 11:38:28;;;;;;;3.43;2.30;;;5.30;99.90;;;;;;5012281;28;20821;-52
2023/02/05 11:40:57;;;;;;;4.20;3.57;;;5.30;99.90;;;;;;5027172;28;20206;-53
2023/02/05 11:43:28;;;;;;;7.07;3.17;;;5.40;99.90;;;;;;5008656;28;20355;-52
2023/02/05 11:45:57;;;;;;;5.23;3.27;;;5.40;99.90;;;;;;5019817;28;20808;-51
2023/02/05 11:48:44;;;;;;;4.20;3.73;;;5.40;99.90;;;;;;5022839;28;20210;-52
2023/02/05 11:51:15;;;;;;;3.23;2.93;;;5.50;99.90;;;;;;4999286;28;20201;-52
2023/02/05 11:53:50;;;;;;;7.30;3.60;;;5.50;99.90;;;;;;5020669;28;20205;-53
2023/02/05 11:56:21;;;;;;;4.53;3.07;;;5.50;99.90;;;;;;5012472;28;20225;-51
2023/02/05 11:58:58;;;;;;;4.83;3.53;;;5.50;99.90;;;;;;5011974;28;20803;-52
2023/02/05 12:01:28;;;;;;;4.95;3.65;;;5.40;99.90;;;;;;5006856;28;20461;-51
2023/02/05 12:04:01;;;;;;;3.67;3.03;;;5.40;99.90;;;;;;5015430;28;20193;-52
2023/02/05 12:06:35;;;;;;;5.83;4.07;;;5.50;99.90;;;;;;5021835;28;20217;-52
2023/02/05 12:09:03;;;;;;;4.23;3.27;;;5.50;99.90;;;;;;5008353;28;20551;-52
2023/02/05 12:12:05;;;;;;;6.57;3.30;;;5.50;99.90;;;;;;5012016;28;20591;-52
2023/02/05 12:14:43;;;;;;;4.83;4.13;;;5.50;99.90;;;;;;5011520;28;20256;-52
2023/02/05 12:17:31;;;;;;;7.77;4.47;;;5.50;99.90;;;;;;5017266;28;20228;-51
2023/02/05 12:20:10;;;;;;;6.03;5.13;;;5.50;99.90;;;;;;5015480;28;20297;-52
2023/02/05 12:23:07;;;;;;;8.43;5.53;;;5.40;99.90;;;;;;5011952;28;20683;-51
2023/02/05 12:25:42;;;;;;;5.40;4.90;;;5.40;99.90;;;;;;5020330;28;20206;-52
2023/02/05 12:28:22;;;;;;;6.63;4.70;;;5.40;99.90;;;;;;5031729;28;20628;-52
2023/02/05 12:31:01;;;;;;;8.13;4.53;;;5.60;99.90;;;;;;5026842;28;20260;-52
2023/02/05 12:33:46;;;;;;;6.73;4.77;;;5.70;99.90;;;;;;5018813;28;20204;-53
2023/02/05 12:36:30;;;;;;;5.80;4.83;;;5.80;99.90;;;;;;5019884;28;20220;-51
2023/02/05 12:39:07;;;;;;;6.07;4.40;;;5.80;99.90;;;;;;5031295;28;20258;-51
2023/02/05 12:41:42;;;;;;;4.87;3.40;;;5.90;99.90;;;;;;5011715;28;20274;-51
2023/02/05 12:44:21;;;;;;;4.73;3.80;;;5.80;99.90;;;;;;5026713;28;20230;-52
2023/02/05 12:47:04;;;;;;;8.30;5.13;;;5.80;99.90;;;;;;5031149;28;20244;-51
2023/02/05 12:49:55;;;;;;;5.80;3.93;;;5.80;99.90;;;;;;5018292;28;20243;-52
2023/02/05 12:52:45;;;;;;;6.50;4.70;;;5.70;99.90;;;;;;5008416;28;20279;-51
2023/02/05 12:55:26;;;;;;;10.40;4.33;;;5.70;99.90;;;;;;5011249;28;20229;-51
2023/02/05 12:57:57;;;;;;;7.93;4.10;;;5.60;99.90;;;;;;5011198;28;20229;-52
2023/02/05 13:00:28;;;;;;;4.77;4.13;;;5.60;99.90;;;;;;5011784;28;20256;-51
2023/02/05 13:03:04;;;;;;;5.00;3.20;;;5.50;99.90;;;;;;5020104;28;20204;-52
2023/02/05 13:05:36;;;;;;;5.37;3.87;;;5.50;99.90;;;;;;5013385;28;20253;-53
2023/02/05 13:08:08;;;;;;;6.40;3.37;;;5.40;99.90;;;;;;5018999;28;20224;-52
2023/02/05 13:10:45;;;;;;;6.83;3.37;;;5.50;99.90;;;;;;5011493;28;20705;-54